Ayvacik, Turkey
Current Conditions -  °F | °C
As of 11:50 AM on Saturday 29 Nov 2014 (Local Time) from LTFD Reporting Station
Broken Clouds Broken Clouds  
Wind Chill: 54°   Ceiling: 10000
Heat Index: 54°   Visibility: 6mi
Dew Point: 43°   Wind: 3mph
Humidity: 67%   Direction: 50°NE
Pressure: 30.3"   Gusts: NA
Location:  39.6°N, 26.4°E
Report Text: LTFD 290850Z 05003KT 020V080 9999 SCT035 BKN100 12/06 Q1026
Loading
Personal Weather Stations






























Interactive Weather Map New forecast layout! Learn more

10-Day Weather Forecast

Advertisements
Track Severe Weather on mobile